Aviation Digital Data Service (ADDS)

Output produced by TAFs form (0436 UTC 25 April 2017)
found at http://www.aviationweather.gov/adds/tafs/
 
KPOU 242337Z 2500/2524 13005KT P6SM VCSH BKN080 OVC100 
     FM250600 06005KT 6SM -SHRA BR OVC050 
     FM251000 06007KT 6SM -RA BR OVC035 
     FM251400 06009KT 3SM -RA BR SCT009 OVC020 
     FM251800 06009KT 2SM -RA BR BKN007